This is the latest recevied weather packets stored in our database for station/object VE1AIC-4. If no packets are shown the sender has not sent any weather packets the latest 10 day(s).
| Time | Temp. | Humidity | Pressure | Rain* | Wind** | Luminosity | Snow |
|---|---|---|---|---|---|---|---|
| 1778169685 | 11.67° C | 97% | 1000.1 hPa | 4.06 mm | - | 63 W/m² | - |
| 1778166647 | 11.11° C | 95% | 1001.2 hPa | 2.54 mm | - | 59 W/m² | - |
| 1778165419 | 11.67° C | 94% | 1001.6 hPa | 1.27 mm | - | 54 W/m² | - |
| 1778162442 | 12.22° C | 92% | 1001.3 hPa | 0 mm | - | 61 W/m² | - |
| 1778160644 | 12.22° C | 92% | 1001.8 hPa | 0 mm | - | 47 W/m² | - |
| 1778158846 | 12.22° C | 93% | 1001.8 hPa | 0 mm | - | 65 W/m² | - |
| 1778157677 | 11.67° C | 93% | 1001.9 hPa | 0 mm | - | 57 W/m² | - |
| 1778156432 | 11.67° C | 93% | 1001.8 hPa | 0 mm | - | 63 W/m² | - |
| 1778155219 | 11.67° C | 93% | 1001.4 hPa | 0 mm | - | 179 W/m² | - |
| 1778151684 | 11.11° C | 92% | 1002.1 hPa | 0.25 mm | - | 11 W/m² | - |
| 1778151034 | 10.56° C | 92% | 1002.5 hPa | 0.25 mm | - | 13 W/m² | - |
| 1778149237 | 10.56° C | 90% | 1002.5 hPa | 0 mm | - | 30 W/m² | - |
| 1778140247 | 10.56° C | 88% | 1004.8 hPa | 0 mm | - | 0 W/m² | - |
| 1778131248 | 11.11° C | 84% | 1007.6 hPa | 0 mm | - | 0 W/m² | - |
| 1778125852 | 11.67° C | 84% | 1008.9 hPa | 0 mm | - | 0 W/m² | - |
| 1778121027 | 12.78° C | 83% | 1010.5 hPa | 0 mm | - | 0 W/m² | - |
| 1778120437 | 12.78° C | 83% | 1010.3 hPa | 0 mm | - | 0 W/m² | - |
| 1778107233 | 15.56° C | 76% | 1010.7 hPa | 0 mm | - | 26 W/m² | - |
| 1778103636 | 16.11° C | 72% | 1010.4 hPa | 0 mm | - | 76 W/m² | - |
| 1778103047 | 16.11° C | 72% | 1010.2 hPa | 0 mm | - | 80 W/m² | - |
| 1778101218 | 16.11° C | 72% | 1010 hPa | 0 mm | - | 138 W/m² | - |
| 1778098274 | 16.67° C | 72% | 1010.1 hPa | 0 mm | - | 119 W/m² | - |
| 1778095235 | 18.89° C | 67% | 1010.4 hPa | 0 mm | - | 180 W/m² | - |
| 1778094046 | 18.89° C | 68% | 1010.6 hPa | 0 mm | - | 181 W/m² | - |
| 1778093438 | 19.44° C | 68% | 1010.6 hPa | 0 mm | - | 205 W/m² | - |
* Rain latest hour (hover to see other rain measurements)
** Current wind speed in m/s (hover to see current wind gust speed)